sensor_id;sensor_type;location;lat;lon;timestamp;P1;durP1;ratioP1;P2;durP2;ratioP2
48845;SDS011;34665;51.886;5.436;2022-12-29T00:02:18;5.90;;;2.90;;
48845;SDS011;34665;51.886;5.436;2022-12-29T00:04:43;3.47;;;2.33;;
48845;SDS011;34665;51.886;5.436;2022-12-29T00:07:09;5.55;;;2.53;;
48845;SDS011;34665;51.886;5.436;2022-12-29T00:09:35;4.00;;;2.25;;
48845;SDS011;34665;51.886;5.436;2022-12-29T00:12:02;4.90;;;2.50;;
48845;SDS011;34665;51.886;5.436;2022-12-29T00:14:28;3.93;;;2.17;;
48845;SDS011;34665;51.886;5.436;2022-12-29T00:17:13;4.40;;;2.80;;
48845;SDS011;34665;51.886;5.436;2022-12-29T00:19:40;5.45;;;3.28;;
48845;SDS011;34665;51.886;5.436;2022-12-29T00:22:24;7.80;;;2.70;;
48845;SDS011;34665;51.886;5.436;2022-12-29T00:25:10;4.70;;;3.00;;
48845;SDS011;34665;51.886;5.436;2022-12-29T00:27:55;3.67;;;2.33;;
48845;SDS011;34665;51.886;5.436;2022-12-29T00:30:39;4.03;;;2.20;;
48845;SDS011;34665;51.886;5.436;2022-12-29T00:33:26;3.03;;;1.90;;
48845;SDS011;34665;51.886;5.436;2022-12-29T00:42:06;5.37;;;2.13;;
48845;SDS011;34665;51.886;5.436;2022-12-29T00:44:51;6.70;;;2.83;;
48845;SDS011;34665;51.886;5.436;2022-12-29T00:47:16;5.30;;;2.30;;
48845;SDS011;34665;51.886;5.436;2022-12-29T00:49:42;5.37;;;2.10;;
48845;SDS011;34665;51.886;5.436;2022-12-29T00:52:08;7.07;;;2.73;;
48845;SDS011;34665;51.886;5.436;2022-12-29T00:54:36;11.07;;;2.80;;
48845;SDS011;34665;51.886;5.436;2022-12-29T00:57:04;5.10;;;2.53;;
48845;SDS011;34665;51.886;5.436;2022-12-29T00:59:30;4.00;;;2.20;;
48845;SDS011;34665;51.886;5.436;2022-12-29T01:01:56;2.45;;;1.10;;
48845;SDS011;34665;51.886;5.436;2022-12-29T01:04:23;3.83;;;1.70;;
48845;SDS011;34665;51.886;5.436;2022-12-29T01:06:50;2.87;;;1.60;;
48845;SDS011;34665;51.886;5.436;2022-12-29T01:09:16;2.60;;;1.38;;
48845;SDS011;34665;51.886;5.436;2022-12-29T01:12:01;2.93;;;1.50;;
48845;SDS011;34665;51.886;5.436;2022-12-29T01:14:27;5.50;;;1.95;;
48845;SDS011;34665;51.886;5.436;2022-12-29T01:16:54;4.80;;;1.98;;
48845;SDS011;34665;51.886;5.436;2022-12-29T01:19:20;6.60;;;1.73;;
48845;SDS011;34665;51.886;5.436;2022-12-29T01:21:47;5.43;;;2.70;;
48845;SDS011;34665;51.886;5.436;2022-12-29T01:24:14;4.78;;;2.35;;
48845;SDS011;34665;51.886;5.436;2022-12-29T01:26:41;4.00;;;2.00;;
48845;SDS011;34665;51.886;5.436;2022-12-29T01:29:06;4.07;;;1.95;;
48845;SDS011;34665;51.886;5.436;2022-12-29T01:31:32;4.47;;;2.17;;
48845;SDS011;34665;51.886;5.436;2022-12-29T01:33:57;3.88;;;1.70;;
48845;SDS011;34665;51.886;5.436;2022-12-29T01:36:23;2.70;;;1.77;;
48845;SDS011;34665;51.886;5.436;2022-12-29T01:38:49;4.30;;;2.25;;
48845;SDS011;34665;51.886;5.436;2022-12-29T01:41:15;4.40;;;1.83;;
48845;SDS011;34665;51.886;5.436;2022-12-29T01:48:53;5.33;;;2.90;;
48845;SDS011;34665;51.886;5.436;2022-12-29T01:51:23;3.63;;;1.60;;
48845;SDS011;34665;51.886;5.436;2022-12-29T01:53:51;5.23;;;2.47;;
48845;SDS011;34665;51.886;5.436;2022-12-29T01:56:20;6.57;;;2.30;;
48845;SDS011;34665;51.886;5.436;2022-12-29T01:58:48;7.93;;;1.80;;
48845;SDS011;34665;51.886;5.436;2022-12-29T02:01:19;4.90;;;1.97;;
48845;SDS011;34665;51.886;5.436;2022-12-29T02:03:46;6.37;;;1.60;;
48845;SDS011;34665;51.886;5.436;2022-12-29T02:06:22;3.60;;;1.67;;
48845;SDS011;34665;51.886;5.436;2022-12-29T02:08:52;6.43;;;2.10;;
48845;SDS011;34665;51.886;5.436;2022-12-29T02:11:21;6.53;;;1.80;;
48845;SDS011;34665;51.886;5.436;2022-12-29T02:13:50;18.40;;;1.77;;
48845;SDS011;34665;51.886;5.436;2022-12-29T02:19:09;10.00;;;1.70;;
48845;SDS011;34665;51.886;5.436;2022-12-29T02:33:23;0.00;;;0.00;;
48845;SDS011;34665;51.886;5.436;2022-12-29T02:36:08;0.13;;;0.13;;
48845;SDS011;34665;51.886;5.436;2022-12-29T02:38:50;0.70;;;0.70;;
48845;SDS011;34665;51.886;5.436;2022-12-29T02:46:53;0.20;;;0.20;;
48845;SDS011;34665;51.886;5.436;2022-12-29T02:52:25;10.33;;;1.17;;
48845;SDS011;34665;51.886;5.436;2022-12-29T02:54:56;1.27;;;1.13;;
48845;SDS011;34665;51.886;5.436;2022-12-29T02:59:55;0.30;;;0.30;;
48845;SDS011;34665;51.886;5.436;2022-12-29T03:02:35;0.73;;;0.73;;
48845;SDS011;34665;51.886;5.436;2022-12-29T03:08:17;0.33;;;0.33;;
48845;SDS011;34665;51.886;5.436;2022-12-29T03:10:50;0.10;;;0.10;;
48845;SDS011;34665;51.886;5.436;2022-12-29T03:13:43;0.82;;;0.82;;
48845;SDS011;34665;51.886;5.436;2022-12-29T03:16:33;9.23;;;2.03;;
48845;SDS011;34665;51.886;5.436;2022-12-29T03:19:23;9.88;;;2.28;;
48845;SDS011;34665;51.886;5.436;2022-12-29T03:21:55;6.60;;;2.77;;
48845;SDS011;34665;51.886;5.436;2022-12-29T03:24:52;6.75;;;2.05;;
48845;SDS011;34665;51.886;5.436;2022-12-29T03:27:30;7.33;;;1.97;;
48845;SDS011;34665;51.886;5.436;2022-12-29T03:30:03;6.10;;;2.10;;
48845;SDS011;34665;51.886;5.436;2022-12-29T03:32:35;6.27;;;1.80;;
48845;SDS011;34665;51.886;5.436;2022-12-29T03:35:05;6.53;;;2.10;;
48845;SDS011;34665;51.886;5.436;2022-12-29T03:37:36;9.20;;;2.23;;
48845;SDS011;34665;51.886;5.436;2022-12-29T03:40:05;3.10;;;1.50;;
48845;SDS011;34665;51.886;5.436;2022-12-29T03:42:32;4.18;;;1.70;;
48845;SDS011;34665;51.886;5.436;2022-12-29T03:45:01;11.63;;;2.13;;
48845;SDS011;34665;51.886;5.436;2022-12-29T03:47:31;11.47;;;2.20;;
48845;SDS011;34665;51.886;5.436;2022-12-29T03:49:57;5.05;;;1.67;;
48845;SDS011;34665;51.886;5.436;2022-12-29T03:52:23;8.03;;;2.27;;
48845;SDS011;34665;51.886;5.436;2022-12-29T03:54:51;4.73;;;1.67;;
48845;SDS011;34665;51.886;5.436;2022-12-29T03:57:17;8.00;;;2.50;;
48845;SDS011;34665;51.886;5.436;2022-12-29T04:00:03;8.70;;;1.97;;
48845;SDS011;34665;51.886;5.436;2022-12-29T04:02:40;4.73;;;1.23;;
48845;SDS011;34665;51.886;5.436;2022-12-29T04:05:06;3.65;;;1.50;;
48845;SDS011;34665;51.886;5.436;2022-12-29T04:07:32;8.70;;;1.40;;
48845;SDS011;34665;51.886;5.436;2022-12-29T04:10:00;5.77;;;1.30;;
48845;SDS011;34665;51.886;5.436;2022-12-29T04:12:27;6.93;;;1.33;;
48845;SDS011;34665;51.886;5.436;2022-12-29T04:14:52;4.10;;;1.20;;
48845;SDS011;34665;51.886;5.436;2022-12-29T04:17:17;5.47;;;1.93;;
48845;SDS011;34665;51.886;5.436;2022-12-29T04:19:47;5.07;;;1.27;;
48845;SDS011;34665;51.886;5.436;2022-12-29T04:22:14;5.73;;;1.10;;
48845;SDS011;34665;51.886;5.436;2022-12-29T04:24:40;4.40;;;1.40;;
48845;SDS011;34665;51.886;5.436;2022-12-29T04:27:05;8.00;;;1.40;;
48845;SDS011;34665;51.886;5.436;2022-12-29T04:29:49;6.10;;;0.90;;
48845;SDS011;34665;51.886;5.436;2022-12-29T04:32:42;4.57;;;1.07;;
48845;SDS011;34665;51.886;5.436;2022-12-29T04:35:08;5.95;;;0.90;;
48845;SDS011;34665;51.886;5.436;2022-12-29T04:37:34;9.73;;;2.13;;
48845;SDS011;34665;51.886;5.436;2022-12-29T04:39:59;7.13;;;1.43;;
48845;SDS011;34665;51.886;5.436;2022-12-29T04:42:25;9.48;;;1.30;;
48845;SDS011;34665;51.886;5.436;2022-12-29T04:44:51;5.80;;;1.63;;
48845;SDS011;34665;51.886;5.436;2022-12-29T04:47:32;5.10;;;1.17;;
48845;SDS011;34665;51.886;5.436;2022-12-29T04:50:05;11.23;;;1.50;;
48845;SDS011;34665;51.886;5.436;2022-12-29T04:52:32;6.67;;;1.20;;
48845;SDS011;34665;51.886;5.436;2022-12-29T04:54:58;11.02;;;1.70;;
48845;SDS011;34665;51.886;5.436;2022-12-29T04:57:24;8.47;;;1.33;;
48845;SDS011;34665;51.886;5.436;2022-12-29T04:59:53;13.50;;;1.90;;
48845;SDS011;34665;51.886;5.436;2022-12-29T05:02:19;5.68;;;1.65;;
48845;SDS011;34665;51.886;5.436;2022-12-29T05:04:48;4.33;;;1.00;;
48845;SDS011;34665;51.886;5.436;2022-12-29T05:07:14;6.43;;;1.17;;
48845;SDS011;34665;51.886;5.436;2022-12-29T05:09:42;5.73;;;1.13;;
48845;SDS011;34665;51.886;5.436;2022-12-29T05:12:07;5.30;;;0.87;;
48845;SDS011;34665;51.886;5.436;2022-12-29T05:14:37;7.87;;;1.13;;
48845;SDS011;34665;51.886;5.436;2022-12-29T05:17:03;9.40;;;1.50;;
48845;SDS011;34665;51.886;5.436;2022-12-29T05:19:29;6.00;;;1.30;;
48845;SDS011;34665;51.886;5.436;2022-12-29T05:21:54;5.77;;;1.90;;
48845;SDS011;34665;51.886;5.436;2022-12-29T05:24:20;11.15;;;1.70;;
48845;SDS011;34665;51.886;5.436;2022-12-29T05:26:46;7.22;;;1.30;;
48845;SDS011;34665;51.886;5.436;2022-12-29T05:29:30;8.40;;;2.00;;
48845;SDS011;34665;51.886;5.436;2022-12-29T05:31:56;9.07;;;1.52;;
48845;SDS011;34665;51.886;5.436;2022-12-29T05:34:23;10.00;;;1.83;;
48845;SDS011;34665;51.886;5.436;2022-12-29T05:36:50;9.93;;;1.60;;
48845;SDS011;34665;51.886;5.436;2022-12-29T05:39:17;8.53;;;1.63;;
48845;SDS011;34665;51.886;5.436;2022-12-29T05:41:48;9.80;;;1.80;;
48845;SDS011;34665;51.886;5.436;2022-12-29T05:44:14;10.07;;;2.05;;
48845;SDS011;34665;51.886;5.436;2022-12-29T05:46:48;6.43;;;1.30;;
48845;SDS011;34665;51.886;5.436;2022-12-29T05:49:18;7.43;;;1.60;;
48845;SDS011;34665;51.886;5.436;2022-12-29T05:52:04;11.83;;;1.70;;
48845;SDS011;34665;51.886;5.436;2022-12-29T05:54:31;12.23;;;2.00;;
48845;SDS011;34665;51.886;5.436;2022-12-29T05:56:57;11.00;;;2.45;;
48845;SDS011;34665;51.886;5.436;2022-12-29T05:59:23;11.03;;;2.10;;
48845;SDS011;34665;51.886;5.436;2022-12-29T06:01:49;12.07;;;2.13;;
48845;SDS011;34665;51.886;5.436;2022-12-29T06:04:15;7.75;;;2.17;;
48845;SDS011;34665;51.886;5.436;2022-12-29T06:06:41;8.52;;;1.73;;
48845;SDS011;34665;51.886;5.436;2022-12-29T06:09:12;7.70;;;1.87;;
48845;SDS011;34665;51.886;5.436;2022-12-29T06:11:37;15.05;;;1.27;;
48845;SDS011;34665;51.886;5.436;2022-12-29T06:14:03;16.57;;;2.93;;
48845;SDS011;34665;51.886;5.436;2022-12-29T06:16:28;6.70;;;1.47;;
48845;SDS011;34665;51.886;5.436;2022-12-29T06:18:57;10.20;;;2.10;;
48845;SDS011;34665;51.886;5.436;2022-12-29T06:21:22;6.87;;;1.50;;
48845;SDS011;34665;51.886;5.436;2022-12-29T06:23:48;13.55;;;1.83;;
48845;SDS011;34665;51.886;5.436;2022-12-29T06:26:14;9.20;;;1.70;;
48845;SDS011;34665;51.886;5.436;2022-12-29T06:28:39;7.65;;;1.77;;
48845;SDS011;34665;51.886;5.436;2022-12-29T06:31:07;10.37;;;1.33;;
48845;SDS011;34665;51.886;5.436;2022-12-29T06:33:34;8.27;;;1.40;;
48845;SDS011;34665;51.886;5.436;2022-12-29T06:36:00;10.57;;;1.73;;
48845;SDS011;34665;51.886;5.436;2022-12-29T06:38:25;10.47;;;1.77;;
48845;SDS011;34665;51.886;5.436;2022-12-29T06:40:50;11.33;;;2.17;;
48845;SDS011;34665;51.886;5.436;2022-12-29T06:43:38;6.93;;;1.30;;
48845;SDS011;34665;51.886;5.436;2022-12-29T06:46:14;9.97;;;2.30;;
48845;SDS011;34665;51.886;5.436;2022-12-29T06:48:39;10.90;;;1.63;;
48845;SDS011;34665;51.886;5.436;2022-12-29T06:51:07;4.53;;;1.97;;
48845;SDS011;34665;51.886;5.436;2022-12-29T06:53:32;13.35;;;1.55;;
48845;SDS011;34665;51.886;5.436;2022-12-29T06:55:58;6.93;;;1.77;;
48845;SDS011;34665;51.886;5.436;2022-12-29T06:58:23;7.35;;;2.10;;
48845;SDS011;34665;51.886;5.436;2022-12-29T07:00:49;11.90;;;1.50;;
48845;SDS011;34665;51.886;5.436;2022-12-29T07:03:15;10.57;;;1.47;;
48845;SDS011;34665;51.886;5.436;2022-12-29T07:05:40;9.73;;;1.60;;
48845;SDS011;34665;51.886;5.436;2022-12-29T07:08:05;14.67;;;1.73;;
48845;SDS011;34665;51.886;5.436;2022-12-29T07:10:31;15.27;;;1.88;;
48845;SDS011;34665;51.886;5.436;2022-12-29T07:12:57;9.38;;;1.45;;
48845;SDS011;34665;51.886;5.436;2022-12-29T07:15:22;9.57;;;1.10;;
48845;SDS011;34665;51.886;5.436;2022-12-29T07:17:47;10.17;;;1.80;;
48845;SDS011;34665;51.886;5.436;2022-12-29T07:20:14;7.90;;;1.23;;
48845;SDS011;34665;51.886;5.436;2022-12-29T07:22:40;6.55;;;1.45;;
48845;SDS011;34665;51.886;5.436;2022-12-29T07:25:05;10.07;;;1.77;;
48845;SDS011;34665;51.886;5.436;2022-12-29T07:27:31;11.38;;;2.17;;
48845;SDS011;34665;51.886;5.436;2022-12-29T07:29:57;8.63;;;1.77;;
48845;SDS011;34665;51.886;5.436;2022-12-29T07:32:22;13.77;;;2.00;;
48845;SDS011;34665;51.886;5.436;2022-12-29T07:34:48;2.50;;;1.00;;
48845;SDS011;34665;51.886;5.436;2022-12-29T07:37:16;8.30;;;2.00;;
48845;SDS011;34665;51.886;5.436;2022-12-29T07:39:42;9.63;;;1.40;;
48845;SDS011;34665;51.886;5.436;2022-12-29T07:42:08;9.30;;;1.55;;
48845;SDS011;34665;51.886;5.436;2022-12-29T07:44:40;8.87;;;1.20;;
48845;SDS011;34665;51.886;5.436;2022-12-29T07:47:15;8.97;;;2.33;;
48845;SDS011;34665;51.886;5.436;2022-12-29T07:49:40;9.93;;;2.20;;
48845;SDS011;34665;51.886;5.436;2022-12-29T07:52:05;9.17;;;1.90;;
48845;SDS011;34665;51.886;5.436;2022-12-29T07:54:31;10.30;;;1.88;;
48845;SDS011;34665;51.886;5.436;2022-12-29T07:56:57;7.55;;;1.30;;
48845;SDS011;34665;51.886;5.436;2022-12-29T07:59:25;14.73;;;1.70;;
48845;SDS011;34665;51.886;5.436;2022-12-29T08:01:51;8.68;;;1.98;;
48845;SDS011;34665;51.886;5.436;2022-12-29T08:04:17;8.50;;;1.37;;
48845;SDS011;34665;51.886;5.436;2022-12-29T08:06:42;17.02;;;3.03;;
48845;SDS011;34665;51.886;5.436;2022-12-29T08:09:08;17.55;;;2.58;;
48845;SDS011;34665;51.886;5.436;2022-12-29T08:11:33;11.05;;;1.67;;
48845;SDS011;34665;51.886;5.436;2022-12-29T08:13:59;11.23;;;1.88;;
48845;SDS011;34665;51.886;5.436;2022-12-29T08:16:25;14.67;;;2.10;;
48845;SDS011;34665;51.886;5.436;2022-12-29T08:18:50;10.80;;;1.73;;
48845;SDS011;34665;51.886;5.436;2022-12-29T08:21:16;10.33;;;2.17;;
48845;SDS011;34665;51.886;5.436;2022-12-29T08:23:41;23.58;;;2.78;;
48845;SDS011;34665;51.886;5.436;2022-12-29T08:26:07;8.50;;;2.33;;
48845;SDS011;34665;51.886;5.436;2022-12-29T08:28:33;14.10;;;2.23;;
48845;SDS011;34665;51.886;5.436;2022-12-29T08:30:59;13.32;;;1.75;;
48845;SDS011;34665;51.886;5.436;2022-12-29T08:33:26;9.07;;;1.53;;
48845;SDS011;34665;51.886;5.436;2022-12-29T08:35:52;15.95;;;1.65;;
48845;SDS011;34665;51.886;5.436;2022-12-29T08:38:17;9.70;;;1.50;;
48845;SDS011;34665;51.886;5.436;2022-12-29T08:40:43;7.47;;;1.95;;
48845;SDS011;34665;51.886;5.436;2022-12-29T08:43:09;9.68;;;2.03;;
48845;SDS011;34665;51.886;5.436;2022-12-29T08:45:34;12.67;;;2.40;;
48845;SDS011;34665;51.886;5.436;2022-12-29T08:47:59;7.03;;;1.63;;
48845;SDS011;34665;51.886;5.436;2022-12-29T08:50:25;4.93;;;1.70;;
48845;SDS011;34665;51.886;5.436;2022-12-29T08:52:51;8.47;;;1.80;;
48845;SDS011;34665;51.886;5.436;2022-12-29T08:55:16;14.17;;;2.17;;
48845;SDS011;34665;51.886;5.436;2022-12-29T08:57:42;11.93;;;2.00;;
48845;SDS011;34665;51.886;5.436;2022-12-29T09:00:16;8.80;;;1.60;;
48845;SDS011;34665;51.886;5.436;2022-12-29T09:02:42;8.30;;;2.75;;
48845;SDS011;34665;51.886;5.436;2022-12-29T09:05:07;8.30;;;2.23;;
48845;SDS011;34665;51.886;5.436;2022-12-29T09:07:34;8.45;;;1.50;;
48845;SDS011;34665;51.886;5.436;2022-12-29T09:09:59;19.38;;;2.05;;
48845;SDS011;34665;51.886;5.436;2022-12-29T09:12:25;16.63;;;3.50;;
48845;SDS011;34665;51.886;5.436;2022-12-29T09:14:50;11.90;;;2.33;;
48845;SDS011;34665;51.886;5.436;2022-12-29T09:17:16;12.90;;;2.40;;
48845;SDS011;34665;51.886;5.436;2022-12-29T09:20:00;18.27;;;2.73;;
48845;SDS011;34665;51.886;5.436;2022-12-29T09:22:25;12.93;;;2.00;;
48845;SDS011;34665;51.886;5.436;2022-12-29T09:24:51;11.50;;;2.80;;
48845;SDS011;34665;51.886;5.436;2022-12-29T09:27:16;14.60;;;2.47;;
48845;SDS011;34665;51.886;5.436;2022-12-29T09:29:42;14.80;;;1.83;;
48845;SDS011;34665;51.886;5.436;2022-12-29T09:32:07;7.57;;;1.80;;
48845;SDS011;34665;51.886;5.436;2022-12-29T09:34:33;12.43;;;3.10;;
48845;SDS011;34665;51.886;5.436;2022-12-29T09:36:59;11.57;;;2.10;;
48845;SDS011;34665;51.886;5.436;2022-12-29T09:39:25;17.23;;;2.00;;
48845;SDS011;34665;51.886;5.436;2022-12-29T09:41:58;12.97;;;2.80;;
48845;SDS011;34665;51.886;5.436;2022-12-29T09:44:42;9.57;;;2.13;;
48845;SDS011;34665;51.886;5.436;2022-12-29T09:47:16;16.50;;;2.95;;
48845;SDS011;34665;51.886;5.436;2022-12-29T09:49:51;13.60;;;2.13;;
48845;SDS011;34665;51.886;5.436;2022-12-29T09:52:22;12.53;;;2.27;;
48845;SDS011;34665;51.886;5.436;2022-12-29T09:55:01;14.93;;;2.00;;
48845;SDS011;34665;51.886;5.436;2022-12-29T09:57:39;6.23;;;1.83;;
48845;SDS011;34665;51.886;5.436;2022-12-29T10:00:16;12.67;;;2.70;;
48845;SDS011;34665;51.886;5.436;2022-12-29T10:05:28;12.47;;;2.30;;
48845;SDS011;34665;51.886;5.436;2022-12-29T10:08:13;15.33;;;1.93;;
48845;SDS011;34665;51.886;5.436;2022-12-29T10:16:12;10.30;;;2.67;;
48845;SDS011;34665;51.886;5.436;2022-12-29T10:18:48;13.80;;;3.67;;
48845;SDS011;34665;51.886;5.436;2022-12-29T10:21:20;14.10;;;2.93;;
48845;SDS011;34665;51.886;5.436;2022-12-29T10:23:53;18.90;;;2.55;;
48845;SDS011;34665;51.886;5.436;2022-12-29T10:26:30;15.45;;;3.25;;
48845;SDS011;34665;51.886;5.436;2022-12-29T10:29:05;8.97;;;2.40;;
48845;SDS011;34665;51.886;5.436;2022-12-29T10:31:44;7.63;;;3.23;;
48845;SDS011;34665;51.886;5.436;2022-12-29T10:34:19;14.20;;;2.80;;
48845;SDS011;34665;51.886;5.436;2022-12-29T10:36:49;13.43;;;2.20;;
48845;SDS011;34665;51.886;5.436;2022-12-29T10:39:32;14.33;;;3.03;;
48845;SDS011;34665;51.886;5.436;2022-12-29T10:42:10;9.97;;;3.03;;
48845;SDS011;34665;51.886;5.436;2022-12-29T10:44:43;8.87;;;3.10;;
48845;SDS011;34665;51.886;5.436;2022-12-29T10:47:11;10.10;;;3.20;;
48845;SDS011;34665;51.886;5.436;2022-12-29T10:49:41;17.77;;;3.50;;
48845;SDS011;34665;51.886;5.436;2022-12-29T10:52:10;17.33;;;4.67;;
48845;SDS011;34665;51.886;5.436;2022-12-29T10:57:26;17.03;;;4.37;;
48845;SDS011;34665;51.886;5.436;2022-12-29T10:59:56;15.57;;;4.03;;
48845;SDS011;34665;51.886;5.436;2022-12-29T11:02:26;16.30;;;3.93;;
48845;SDS011;34665;51.886;5.436;2022-12-29T11:05:18;19.33;;;3.80;;
48845;SDS011;34665;51.886;5.436;2022-12-29T11:07:55;23.73;;;5.73;;
48845;SDS011;34665;51.886;5.436;2022-12-29T11:10:29;17.07;;;5.00;;
48845;SDS011;34665;51.886;5.436;2022-12-29T11:13:03;17.63;;;5.03;;
48845;SDS011;34665;51.886;5.436;2022-12-29T11:15:40;12.23;;;4.90;;
48845;SDS011;34665;51.886;5.436;2022-12-29T11:18:19;29.13;;;6.17;;
48845;SDS011;34665;51.886;5.436;2022-12-29T11:20:44;22.00;;;6.10;;
48845;SDS011;34665;51.886;5.436;2022-12-29T11:31:45;22.57;;;5.27;;
48845;SDS011;34665;51.886;5.436;2022-12-29T11:37:02;19.97;;;4.60;;
48845;SDS011;34665;51.886;5.436;2022-12-29T11:39:41;20.30;;;5.67;;
48845;SDS011;34665;51.886;5.436;2022-12-29T11:42:16;21.23;;;4.30;;
48845;SDS011;34665;51.886;5.436;2022-12-29T11:44:48;19.57;;;3.97;;
48845;SDS011;34665;51.886;5.436;2022-12-29T11:47:30;15.00;;;3.63;;
48845;SDS011;34665;51.886;5.436;2022-12-29T11:50:02;22.13;;;4.43;;
48845;SDS011;34665;51.886;5.436;2022-12-29T11:52:34;20.03;;;4.80;;
48845;SDS011;34665;51.886;5.436;2022-12-29T11:55:04;11.33;;;2.87;;
48845;SDS011;34665;51.886;5.436;2022-12-29T11:57:32;14.97;;;4.07;;
48845;SDS011;34665;51.886;5.436;2022-12-29T12:00:00;10.50;;;2.93;;
48845;SDS011;34665;51.886;5.436;2022-12-29T12:07:44;15.13;;;3.80;;
48845;SDS011;34665;51.886;5.436;2022-12-29T12:10:15;18.70;;;3.87;;
48845;SDS011;34665;51.886;5.436;2022-12-29T12:12:50;13.97;;;3.83;;
48845;SDS011;34665;51.886;5.436;2022-12-29T12:15:38;25.60;;;4.53;;
48845;SDS011;34665;51.886;5.436;2022-12-29T12:18:09;19.55;;;3.53;;
48845;SDS011;34665;51.886;5.436;2022-12-29T12:20:43;21.77;;;5.33;;
48845;SDS011;34665;51.886;5.436;2022-12-29T12:23:16;16.70;;;3.40;;
48845;SDS011;34665;51.886;5.436;2022-12-29T12:26:09;14.83;;;4.17;;
48845;SDS011;34665;51.886;5.436;2022-12-29T12:29:00;11.73;;;3.70;;
48845;SDS011;34665;51.886;5.436;2022-12-29T12:31:57;13.40;;;3.37;;
48845;SDS011;34665;51.886;5.436;2022-12-29T12:42:36;24.50;;;3.43;;
48845;SDS011;34665;51.886;5.436;2022-12-29T12:51:19;19.20;;;4.07;;
48845;SDS011;34665;51.886;5.436;2022-12-29T12:54:08;15.17;;;3.27;;
48845;SDS011;34665;51.886;5.436;2022-12-29T13:05:06;26.03;;;4.13;;
48845;SDS011;34665;51.886;5.436;2022-12-29T13:13:23;17.20;;;3.90;;
48845;SDS011;34665;51.886;5.436;2022-12-29T13:19:10;14.20;;;4.23;;
48845;SDS011;34665;51.886;5.436;2022-12-29T13:27:26;17.37;;;2.90;;
48845;SDS011;34665;51.886;5.436;2022-12-29T13:30:10;19.17;;;3.50;;
48845;SDS011;34665;51.886;5.436;2022-12-29T13:38:19;16.63;;;2.90;;
48845;SDS011;34665;51.886;5.436;2022-12-29T13:40:47;12.37;;;3.40;;
48845;SDS011;34665;51.886;5.436;2022-12-29T13:43:18;10.83;;;2.53;;
48845;SDS011;34665;51.886;5.436;2022-12-29T13:45:45;16.97;;;1.93;;
48845;SDS011;34665;51.886;5.436;2022-12-29T13:48:23;8.43;;;1.63;;
48845;SDS011;34665;51.886;5.436;2022-12-29T13:51:01;6.97;;;1.83;;
48845;SDS011;34665;51.886;5.436;2022-12-29T13:59:51;9.98;;;2.97;;
48845;SDS011;34665;51.886;5.436;2022-12-29T14:08:00;6.90;;;2.07;;
48845;SDS011;34665;51.886;5.436;2022-12-29T14:13:13;8.50;;;2.05;;
48845;SDS011;34665;51.886;5.436;2022-12-29T14:15:44;5.97;;;2.00;;
48845;SDS011;34665;51.886;5.436;2022-12-29T14:18:22;8.07;;;2.43;;
48845;SDS011;34665;51.886;5.436;2022-12-29T14:20:51;6.87;;;1.93;;
48845;SDS011;34665;51.886;5.436;2022-12-29T14:23:26;12.20;;;2.60;;
48845;SDS011;34665;51.886;5.436;2022-12-29T14:26:13;13.43;;;3.20;;
48845;SDS011;34665;51.886;5.436;2022-12-29T14:28:44;11.57;;;3.00;;
48845;SDS011;34665;51.886;5.436;2022-12-29T14:39:01;16.00;;;3.03;;
48845;SDS011;34665;51.886;5.436;2022-12-29T14:41:32;6.90;;;2.43;;
48845;SDS011;34665;51.886;5.436;2022-12-29T14:44:18;14.80;;;3.20;;
48845;SDS011;34665;51.886;5.436;2022-12-29T14:46:47;10.07;;;3.10;;
48845;SDS011;34665;51.886;5.436;2022-12-29T14:49:22;12.63;;;2.40;;
48845;SDS011;34665;51.886;5.436;2022-12-29T14:51:51;7.43;;;2.10;;
48845;SDS011;34665;51.886;5.436;2022-12-29T14:56:58;17.27;;;3.07;;
48845;SDS011;34665;51.886;5.436;2022-12-29T14:59:26;17.20;;;3.23;;
48845;SDS011;34665;51.886;5.436;2022-12-29T15:01:53;15.63;;;3.20;;
48845;SDS011;34665;51.886;5.436;2022-12-29T15:04:21;20.83;;;3.40;;
48845;SDS011;34665;51.886;5.436;2022-12-29T15:06:49;10.80;;;3.20;;
48845;SDS011;34665;51.886;5.436;2022-12-29T15:09:29;9.77;;;4.03;;
48845;SDS011;34665;51.886;5.436;2022-12-29T15:12:19;13.43;;;3.87;;
48845;SDS011;34665;51.886;5.436;2022-12-29T15:14:52;18.60;;;3.73;;
48845;SDS011;34665;51.886;5.436;2022-12-29T15:17:26;10.13;;;3.10;;
48845;SDS011;34665;51.886;5.436;2022-12-29T15:20:17;9.23;;;3.43;;
48845;SDS011;34665;51.886;5.436;2022-12-29T15:25:24;15.00;;;2.47;;
48845;SDS011;34665;51.886;5.436;2022-12-29T15:27:51;10.47;;;3.87;;
48845;SDS011;34665;51.886;5.436;2022-12-29T15:30:18;13.07;;;2.90;;
48845;SDS011;34665;51.886;5.436;2022-12-29T15:32:45;10.05;;;2.42;;
48845;SDS011;34665;51.886;5.436;2022-12-29T15:37:47;16.37;;;3.03;;
48845;SDS011;34665;51.886;5.436;2022-12-29T15:43:03;14.80;;;2.90;;
48845;SDS011;34665;51.886;5.436;2022-12-29T15:45:41;20.70;;;2.73;;
48845;SDS011;34665;51.886;5.436;2022-12-29T15:48:10;10.70;;;2.60;;
48845;SDS011;34665;51.886;5.436;2022-12-29T15:50:41;9.17;;;2.30;;
48845;SDS011;34665;51.886;5.436;2022-12-29T15:53:12;10.80;;;2.37;;
48845;SDS011;34665;51.886;5.436;2022-12-29T15:55:45;14.68;;;2.67;;
48845;SDS011;34665;51.886;5.436;2022-12-29T15:58:23;14.13;;;3.27;;
48845;SDS011;34665;51.886;5.436;2022-12-29T16:00:54;6.57;;;2.10;;
48845;SDS011;34665;51.886;5.436;2022-12-29T16:03:22;7.17;;;2.00;;
48845;SDS011;34665;51.886;5.436;2022-12-29T16:05:52;13.20;;;2.53;;
48845;SDS011;34665;51.886;5.436;2022-12-29T16:10:52;9.53;;;1.63;;
48845;SDS011;34665;51.886;5.436;2022-12-29T16:13:38;10.43;;;2.00;;
48845;SDS011;34665;51.886;5.436;2022-12-29T16:16:12;11.73;;;2.80;;
48845;SDS011;34665;51.886;5.436;2022-12-29T16:18:42;14.77;;;3.00;;
48845;SDS011;34665;51.886;5.436;2022-12-29T16:21:16;7.87;;;2.20;;
48845;SDS011;34665;51.886;5.436;2022-12-29T16:23:50;5.57;;;1.60;;
48845;SDS011;34665;51.886;5.436;2022-12-29T16:26:18;5.63;;;1.70;;
48845;SDS011;34665;51.886;5.436;2022-12-29T16:28:47;8.70;;;2.20;;
48845;SDS011;34665;51.886;5.436;2022-12-29T16:31:22;10.30;;;1.93;;
48845;SDS011;34665;51.886;5.436;2022-12-29T16:33:52;7.53;;;1.60;;
48845;SDS011;34665;51.886;5.436;2022-12-29T16:39:31;9.87;;;1.33;;
48845;SDS011;34665;51.886;5.436;2022-12-29T16:41:55;6.43;;;1.50;;
48845;SDS011;34665;51.886;5.436;2022-12-29T16:44:22;5.20;;;1.55;;
48845;SDS011;34665;51.886;5.436;2022-12-29T16:47:37;10.00;;;1.60;;
48845;SDS011;34665;51.886;5.436;2022-12-29T16:49:38;9.30;;;2.60;;
48845;SDS011;34665;51.886;5.436;2022-12-29T16:52:20;7.07;;;1.17;;
48845;SDS011;34665;51.886;5.436;2022-12-29T16:54:58;5.72;;;1.75;;
48845;SDS011;34665;51.886;5.436;2022-12-29T16:57:27;13.23;;;3.03;;
48845;SDS011;34665;51.886;5.436;2022-12-29T16:59:57;8.00;;;1.73;;
48845;SDS011;34665;51.886;5.436;2022-12-29T17:02:26;10.40;;;2.73;;
48845;SDS011;34665;51.886;5.436;2022-12-29T17:04:54;14.60;;;2.27;;
48845;SDS011;34665;51.886;5.436;2022-12-29T17:07:21;8.80;;;1.85;;
48845;SDS011;34665;51.886;5.436;2022-12-29T17:09:49;6.40;;;1.47;;
48845;SDS011;34665;51.886;5.436;2022-12-29T17:12:19;9.70;;;1.75;;
48845;SDS011;34665;51.886;5.436;2022-12-29T17:14:52;12.30;;;2.63;;
48845;SDS011;34665;51.886;5.436;2022-12-29T17:17:33;6.07;;;1.77;;
48845;SDS011;34665;51.886;5.436;2022-12-29T17:22:41;11.30;;;1.87;;
48845;SDS011;34665;51.886;5.436;2022-12-29T17:25:11;12.73;;;3.47;;
48845;SDS011;34665;51.886;5.436;2022-12-29T17:27:40;9.90;;;3.37;;
48845;SDS011;34665;51.886;5.436;2022-12-29T17:30:11;18.03;;;2.77;;
48845;SDS011;34665;51.886;5.436;2022-12-29T17:32:42;14.00;;;3.03;;
48845;SDS011;34665;51.886;5.436;2022-12-29T17:35:14;26.33;;;2.90;;